Log in
NYSE:ENLC

EnLink Midstream Institutional Ownership

$2.62
-0.02 (-0.76 %)
(As of 09/18/2020 12:00 AM ET)
Add
Compare
Today's Range
$2.57
Now: $2.62
$2.67
50-Day Range
$2.42
MA: $2.78
$3.14
52-Week Range
$0.88
Now: $2.62
$8.73
Volume3.39 million shs
Average Volume4.86 million shs
Market Capitalization$1.28 billion
P/E RatioN/A
Dividend Yield14.39%
Beta3.67

Institutional Ownership

Institutional Ownership Changes (13F Filings) for EnLink Midstream (NYSE:ENLC)

Institutional Ownership Percentage: 33.98%

Institutional Buying and Selling by Quarter


EnLink Midstream (NYSE ENLC) Institutional Buying and Selling

Reporting DateHedge FundShares HeldMarket Value% of PortfolioQuarterly Change in SharesOwnership in Company
9/15/2020Two Sigma Advisers LP474,421$1.16M0.0%-12.6%0.097%
9/11/2020Mitsubishi UFJ Trust & Banking Corp32,479$79K0.0%-46.9%0.007%
8/27/2020Neuberger Berman Group LLC22,215$54K0.0%-27.8%0.005%
8/18/2020Blackstone Group Inc1,728,781$4.22M0.0%N/A0.353%
8/17/2020Engineers Gate Manager LP12,817$31K0.0%N/A0.003%
8/17/2020Great West Life Assurance Co. Can717,470$1.75M0.0%+438.4%0.147%
8/17/2020Jane Street Group LLC146,362$0.36M0.0%N/A0.030%
8/14/2020Bank of America Corp DE3,088,575$7.54M0.0%+45.6%0.631%
8/14/2020Brookfield Asset Management Inc.4,375,162$10.68M0.1%N/A0.894%
8/12/2020Bank of New York Mellon Corp278,269$0.68M0.0%+24.7%0.057%
8/12/2020California Public Employees Retirement System600,362$1.47M0.0%-20.1%0.123%
8/11/2020Teacher Retirement System of Texas281,294$0.69M0.0%+20.6%0.057%
8/11/2020Macquarie Group Ltd.12,428$30K0.0%-23.3%0.003%
8/10/2020HighTower Advisors LLC30,417$74K0.0%N/A0.006%
8/7/2020Virtu Financial LLC45,303$0.11M0.0%N/A0.009%
8/6/2020Steward Partners Investment Advisory LLC22,634$55K0.0%-25.9%0.005%
8/5/2020Alps Advisors Inc.31,894,582$77.82M1.0%-5.1%6.519%
8/5/2020Cullen Frost Bankers Inc.10,350$25K0.0%+200.0%0.002%
8/5/2020Swiss National Bank599,723$1.46M0.0%+15.3%0.123%
8/3/2020Cadence Capital Management LLC14,200$35K0.0%-99.1%0.003%
7/31/2020Chicago Partners Investment Group LLC128,294$0.32M0.0%+3.8%0.026%
7/31/2020UBS Group AG4,135,816$10.09M0.0%+13.5%0.845%
7/31/2020Fort Washington Investment Advisors Inc. OH19,000$46K0.0%N/A0.004%
7/28/2020Zurcher Kantonalbank Zurich Cantonalbank30,797$75K0.0%+99.5%0.006%
7/28/2020Vident Investment Advisory LLC488,430$1.19M0.1%+3.8%0.100%
7/27/2020Cambridge Investment Research Advisors Inc.13,302$32K0.0%N/A0.003%
7/23/2020Janney Montgomery Scott LLC18,805$46K0.0%N/A0.004%
7/23/2020Creative Financial Designs Inc. ADV36,903$90K0.0%N/A0.008%
7/23/2020XTX Markets LLC14,085$34K0.1%N/A0.003%
7/22/2020Hodges Capital Management Inc.639,270$1.56M0.3%-4.0%0.131%
7/22/2020First Trust Advisors LP3,356,051$8.19M0.0%N/A0.686%
7/17/2020Vident Investment Advisory LLC488,430$1.19M0.0%+3.8%0.100%
7/15/2020Segment Wealth Management LLC52,230$0.13M0.0%N/A0.011%
7/15/2020Financial Advisory Corp UT ADV23,119$56K0.1%+95.9%0.005%
7/15/2020Chickasaw Capital Management LLC16,088,406$39.26M2.0%-10.7%3.288%
7/14/2020Hilton Capital Management LLC10,925$27K0.0%N/A0.002%
7/14/2020Insight Folios Inc14,676$36K0.0%N/A0.003%
7/10/2020SL Advisors LLC77,172$0.19M0.7%+6.1%0.016%
7/8/2020Envestnet Asset Management Inc.32,750$80K0.0%-51.1%0.007%
7/6/2020Walnut Private Equity Partners LLC827,400$2.02M1.8%+80.0%0.169%
6/19/2020State Street Corp732,814$0.81M0.0%+22.0%0.150%
6/16/2020Royal Bank of Canada140,470$0.15M0.0%-23.8%0.029%
6/2/2020Guggenheim Capital LLC61,571$68K0.0%-20.1%0.013%
5/26/2020Morgan Stanley8,920,964$9.81M0.0%+24.7%1.823%
5/15/2020CNH Partners LLC159,607$0.18M0.0%+190.2%0.033%
5/15/2020Invesco Ltd.44,136,391$48.55M0.0%+74.5%9.036%
5/15/2020Schroder Investment Management Group48,819$53K0.0%-18.8%0.010%
5/15/2020Morgan Stanley8,920,964$9.81M0.0%+24.7%1.826%
5/15/2020Luminus Management LLC2,006,300$2.21M0.2%N/A0.411%
5/15/2020Harvest Fund Advisors LLC1,980,077$2.18M0.0%N/A0.405%
5/15/2020Quantitative Investment Management LLC282,422$0.31M0.0%N/A0.058%
5/15/2020Parametrica Management Ltd24,906$27K0.0%N/A0.005%
5/15/2020Two Sigma Investments LP1,654,991$1.82M0.0%+490.6%0.339%
5/15/2020Two Sigma Advisers LP542,721$0.60M0.0%+826.8%0.111%
5/15/2020Cohen & Steers Inc.1,688,716$1.86M0.0%-14.1%0.346%
5/15/2020Thrivent Financial for Lutherans611,004$0.67M0.0%N/A0.125%
5/14/2020Wells Fargo & Company MN148,772$0.16M0.0%+114.0%0.030%
5/14/2020Tortoise Capital Advisors L.L.C.621,769$0.68M0.0%-97.8%0.127%
5/14/2020Commonwealth of Pennsylvania Public School Empls Retrmt SYS553,484$0.61M0.0%-37.7%0.113%
5/14/2020Deutsche Bank AG644,892$0.71M0.0%+28.9%0.132%
5/13/2020Castleark Management LLC72,605$80K0.0%-50.6%0.015%
5/12/2020Catalyst Capital Advisors LLC725,470$0.80M0.0%-32.8%0.149%
5/12/2020Vident Investment Advisory LLC470,657$0.52M0.0%N/A0.096%
5/12/2020Citigroup Inc.1,067,366$1.18M0.0%+100.2%0.219%
5/12/2020Americana Partners LLC90,352$99K0.1%-10.3%0.018%
5/12/2020GSA Capital Partners LLP41,118$45K0.0%-16.6%0.008%
5/12/2020JPMorgan Chase & Co.6,985,236$7.68M0.0%+9.6%1.430%
5/11/2020State Street Corp732,814$0.81M0.0%+22.0%0.150%
5/8/2020Swiss National Bank520,123$0.57M0.0%+1.4%0.106%
5/6/2020Bank of New York Mellon Corp223,167$0.25M0.0%-97.5%0.046%
5/6/2020Alps Advisors Inc.33,623,968$36.99M0.6%+7.8%6.884%
5/5/2020Teacher Retirement System of Texas233,163$0.26M0.0%-9.4%0.048%
5/5/2020Arizona State Retirement System62,961$69K0.0%N/A0.013%
5/4/2020Hodges Capital Management Inc.665,809$0.73M0.2%-47.1%0.136%
5/4/2020Cadence Capital Management LLC1,537,626$1.69M0.3%+15.0%0.315%
5/1/2020BlackRock Inc.1,009,275$1.11M0.0%-40.5%0.207%
5/1/2020UBS Group AG3,644,141$4.01M0.0%+35.0%0.746%
4/29/2020Steward Partners Investment Advisory LLC30,555$33K0.0%-35.1%0.006%
4/23/2020Pacer Advisors Inc.138,636$0.16M0.0%-68.4%0.028%
4/23/2020Envestnet Asset Management Inc.66,918$74K0.0%+318.9%0.014%
4/21/2020Raymond James & Associates194,020$0.21M0.0%-33.7%0.040%
4/6/2020Chickasaw Capital Management LLC18,008,292$19.81M1.5%-33.5%3.687%
4/2/2020Walnut Private Equity Partners LLC459,592$0.51M0.6%+21.4%0.094%
3/5/2020Nuveen Asset Management LLC75,769$0.46M0.0%N/A0.016%
3/2/2020Connor Clark & Lunn Investment Management Ltd.26,400$0.16M0.0%N/A0.005%
2/26/2020Sunbelt Securities Inc.17,848$0.11M0.0%-37.6%0.004%
2/21/2020Tortoise Capital Advisors L.L.C.28,643,845$175.59M1.1%+3.4%5.874%
2/20/2020Geode Capital Management LLC14,238$87K0.0%N/A0.003%
2/19/2020Tortoise Capital Advisors L.L.C.28,643,845$175.59M1.1%+3.4%5.874%
2/17/2020Ladenburg Thalmann Financial Services Inc.8,122$50K0.0%-24.5%0.002%
2/14/2020Captrust Financial Advisors55,819$0.35M0.0%+45.8%0.011%
2/14/2020Advisory Alpha LLC11,600$63K0.0%N/A0.002%
2/14/2020Bank of America Corp DE2,320,911$14.23M0.0%-33.4%0.476%
2/14/2020Bank of New York Mellon Corp8,971,872$55M0.0%+37.1%1.840%
2/14/2020Goldman Sachs Group Inc.3,648,294$22.36M0.0%+30.0%0.748%
2/14/2020Guggenheim Capital LLC77,028$0.47M0.0%-26.9%0.016%
2/14/2020UBS Group AG2,699,852$16.55M0.0%-40.3%0.554%
2/14/2020Mitsubishi UFJ Trust & Banking Corp61,121$0.38M0.0%-13.5%0.013%
2/14/2020Brookfield Public Securities Group LLC17,424,447$106.81M1.1%-5.4%3.573%
2/14/2020Cohen & Steers Inc.1,965,089$12.05M0.0%-6.6%0.403%
(Data available from 1/1/2016 forward)
This page was last updated on 9/20/2020 by MarketBeat.com Staff

Enter your email address below to receive a concise daily summary of analysts' upgrades, downgrades and new coverage with MarketBeat.com's FREE daily email newsletter.